^^
Marion, Virginia Banner
 

Adwolf, VA. Station Historical Data
[ Providing Data Since 6/07/2007 ]
Station Historical Data
 
Daily Summary for February 22, 2017 Units:  Both    English   Metric
« Previous Day
Next Day »
Daily Weekly Monthly Yearly Custom
  Current: High: Low: Average:
Temperature: 48.0 °F /  8.9 °C 53.0 °F /  11.7 °C 48.0 °F /  8.9 °C 51.2 °F /  10.7 °C
Dew Point: 45.7 °F /  7.6 °C 45.7 °F /  7.6 °C 43.3 °F /  6.3 °C 44.5 °F /  6.9 °C
Humidity: 92% 92% 70% 78%
Wind Speed: 1.2mph /  1.9km/h 9.2mph /  14.8km/h - 1.8mph /  2.9km/h
Wind Gust: 1.2mph /  1.9km/h 9.2mph /  14.8km/h - -
WindESE - - ENE
Pressure: 30.02 in /  1016.5 hPa 30.05 in /  1017.5 hPa 29.98 in /  1015.1 hPa -
Precipitation: 0.08 in /  2.03 mm      
Historical Graphs
 
 
Tabular Data for February 22, 2017
Time Temperature Dew Point Pressure Wind Wind Speed Wind Gust Humidity Rainfall Rate (Hourly) solar Conditions
00:04 52.6 °F /  11.4 °C 44.9 °F /  7.2 °C 30.05in /  1017.5hPa Calm     75% 0.00in /  0mm WeatherDisplay:10.37 W/m2 BKN
00:09 52.5 °F /  11.4 °C 44.8 °F /  7.1 °C 30.05in /  1017.5hPa Calm     75% 0.00in /  0mm WeatherDisplay:10.37 W/m2 BKN
00:14 52.3 °F /  11.3 °C 44.6 °F /  7 °C 30.05in /  1017.5hPa Calm     75% 0.00in /  0mm WeatherDisplay:10.37 W/m2 BKN
00:19 52.2 °F /  11.2 °C 44.5 °F /  6.9 °C 30.04in /  1017.2hPa Calm     75% 0.00in /  0mm WeatherDisplay:10.37 W/m2 BKN
00:24 52.0 °F /  11.1 °C 45.0 °F /  7.2 °C 30.04in /  1017.2hPa East 1.2mph /  1.9km/h 1.2mph /  1.9km/h 77% 0.00in /  0mm WeatherDisplay:10.37 W/m2 SCT
00:29 51.8 °F /  11 °C 44.8 °F /  7.1 °C 30.04in /  1017.2hPa East 1.2mph /  1.9km/h   77% 0.00in /  0mm WeatherDisplay:10.37 W/m2 SCT
00:34 51.6 °F /  10.9 °C 44.6 °F /  7 °C 30.04in /  1017.2hPa Calm     77% 0.00in /  0mm WeatherDisplay:10.37 W/m2 SCT
00:39 51.5 °F /  10.8 °C 44.5 °F /  6.9 °C 30.04in /  1017.2hPa East 1.2mph /  1.9km/h   77% 0.00in /  0mm WeatherDisplay:10.37 W/m2 SCT
00:44 51.4 °F /  10.8 °C 44.4 °F /  6.9 °C 30.04in /  1017.2hPa Calm     77% 0.00in /  0mm WeatherDisplay:10.37 W/m2 SCT
00:49 51.3 °F /  10.7 °C 44.3 °F /  6.8 °C 30.03in /  1016.8hPa Calm     77% 0.00in /  0mm WeatherDisplay:10.37 W/m2 SCT
00:54 51.3 °F /  10.7 °C 44.6 °F /  7 °C 30.03in /  1016.8hPa East 1.0mph /  1.6km/h   78% 0.00in /  0mm WeatherDisplay:10.37 W/m2 SCT
00:59 51.3 °F /  10.7 °C 45.0 °F /  7.2 °C 30.03in /  1016.8hPa East 1.2mph /  1.9km/h   79% 0.00in /  0mm WeatherDisplay:10.37 W/m2 SCT
01:04 51.3 °F /  10.7 °C 44.6 °F /  7 °C 30.03in /  1016.8hPa Calm     78% 0.00in /  0mm WeatherDisplay:10.37 W/m2 SCT
01:09 51.3 °F /  10.7 °C 44.6 °F /  7 °C 30.02in /  1016.5hPa Calm     78% 0.00in /  0mm WeatherDisplay:10.37 W/m2 SCT
01:14 51.3 °F /  10.7 °C 44.6 °F /  7 °C 30.02in /  1016.5hPa Calm     78% 0.00in /  0mm WeatherDisplay:10.37 W/m2 SCT
01:19 51.4 °F /  10.8 °C 44.4 °F /  6.9 °C 30.02in /  1016.5hPa Calm     77% 0.00in /  0mm WeatherDisplay:10.37 W/m2 SCT
01:24 51.5 °F /  10.8 °C 44.5 °F /  6.9 °C 30.02in /  1016.5hPa Calm     77% 0.00in /  0mm WeatherDisplay:10.37 W/m2 OVC
01:29 51.6 °F /  10.9 °C 44.6 °F /  7 °C 30.02in /  1016.5hPa Calm     77% 0.00in /  0mm WeatherDisplay:10.37 W/m2 OVC
01:34 51.6 °F /  10.9 °C 44.9 °F /  7.2 °C 30.02in /  1016.5hPa Calm     78% 0.00in /  0mm WeatherDisplay:10.37 W/m2 OVC
01:39 51.6 °F /  10.9 °C 44.6 °F /  7 °C 30.02in /  1016.5hPa Calm     77% 0.00in /  0mm WeatherDisplay:10.37 W/m2 OVC
01:44 51.7 °F /  10.9 °C 44.7 °F /  7.1 °C 30.01in /  1016.1hPa Calm     77% 0.00in /  0mm WeatherDisplay:10.37 W/m2 OVC
01:49 51.7 °F /  10.9 °C 44.3 °F /  6.8 °C 30.01in /  1016.1hPa East 1.0mph /  1.6km/h 1.0mph /  1.6km/h 76% 0.00in /  0mm WeatherDisplay:10.37 W/m2 OVC
01:54 51.7 °F /  10.9 °C 44.7 °F /  7.1 °C 30.01in /  1016.1hPa Calm     77% 0.00in /  0mm WeatherDisplay:10.37 W/m2 OVC
01:59 51.7 °F /  10.9 °C 44.3 °F /  6.8 °C 30.01in /  1016.1hPa East 1.0mph /  1.6km/h 1.0mph /  1.6km/h 76% 0.00in /  0mm WeatherDisplay:10.37 W/m2 OVC
02:04 51.7 °F /  10.9 °C 44.3 °F /  6.8 °C 30.01in /  1016.1hPa Calm     76% 0.00in /  0mm WeatherDisplay:10.37 W/m2 OVC
02:09 51.8 °F /  11 °C 44.8 °F /  7.1 °C 30.00in /  1015.8hPa Calm     77% 0.00in /  0mm WeatherDisplay:10.37 W/m2 OVC
02:14 51.7 °F /  10.9 °C 44.3 °F /  6.8 °C 30.00in /  1015.8hPa Calm     76% 0.00in /  0mm WeatherDisplay:10.37 W/m2 OVC
02:19 51.6 °F /  10.9 °C 44.6 °F /  7 °C 30.00in /  1015.8hPa East 1.2mph /  1.9km/h 1.2mph /  1.9km/h 77% 0.00in /  0mm WeatherDisplay:10.37 W/m2 OVC
02:24 51.6 °F /  10.9 °C 44.2 °F /  6.8 °C 30.00in /  1015.8hPa East 1.2mph /  1.9km/h 1.2mph /  1.9km/h 76% 0.00in /  0mm WeatherDisplay:10.37 W/m2 OVC
02:29 51.7 °F /  10.9 °C 44.3 °F /  6.8 °C 30.00in /  1015.8hPa Calm     76% 0.00in /  0mm WeatherDisplay:10.37 W/m2 OVC
02:34 51.8 °F /  11 °C 44.4 °F /  6.9 °C 30.00in /  1015.8hPa Calm     76% 0.00in /  0mm WeatherDisplay:10.37 W/m2 OVC
02:39 51.7 °F /  10.9 °C 44.3 °F /  6.8 °C 30.00in /  1015.8hPa Calm     76% 0.00in /  0mm WeatherDisplay:10.37 W/m2 OVC
02:44 51.7 °F /  10.9 °C 44.0 °F /  6.7 °C 30.00in /  1015.8hPa East 1.2mph /  1.9km/h 1.2mph /  1.9km/h 75% 0.00in /  0mm WeatherDisplay:10.37 W/m2 OVC
02:49 51.7 °F /  10.9 °C 44.0 °F /  6.7 °C 30.00in /  1015.8hPa Calm     75% 0.00in /  0mm WeatherDisplay:10.37 W/m2 OVC
02:50 51.7 °F /  10.9 °C 44.0 °F /  6.7 °C 30.00in /  1015.8hPa Calm     75% 0.00in /  0mm WeatherDisplay:10.37 W/m2 OVC
02:55 51.7 °F /  10.9 °C 44.3 °F /  6.8 °C 29.99in /  1015.5hPa Calm     76% 0.00in /  0mm WeatherDisplay:10.37 W/m2 OVC
03:00 51.6 °F /  10.9 °C 44.2 °F /  6.8 °C 29.99in /  1015.5hPa Calm     76% 0.00in /  0mm WeatherDisplay:10.37 W/m2 OVC
03:05 51.4 °F /  10.8 °C 44.0 °F /  6.7 °C 29.99in /  1015.5hPa Calm     76% 0.00in /  0mm WeatherDisplay:10.37 W/m2 OVC
03:10 51.4 °F /  10.8 °C 44.0 °F /  6.7 °C 29.99in /  1015.5hPa Calm     76% 0.00in /  0mm WeatherDisplay:10.37 W/m2 OVC
03:15 51.4 °F /  10.8 °C 44.0 °F /  6.7 °C 29.99in /  1015.5hPa Calm     76% 0.00in /  0mm WeatherDisplay:10.37 W/m2 OVC
03:20 51.4 °F /  10.8 °C 44.0 °F /  6.7 °C 29.99in /  1015.5hPa East 1.2mph /  1.9km/h 1.2mph /  1.9km/h 76% 0.00in /  0mm WeatherDisplay:10.37 W/m2 OVC
03:25 51.3 °F /  10.7 °C 44.3 °F /  6.8 °C 29.99in /  1015.5hPa East 1.2mph /  1.9km/h 1.2mph /  1.9km/h 77% 0.00in /  0mm WeatherDisplay:10.37 W/m2 OVC
03:30 51.3 °F /  10.7 °C 44.3 °F /  6.8 °C 29.99in /  1015.5hPa East 1.0mph /  1.6km/h 1.0mph /  1.6km/h 77% 0.00in /  0mm WeatherDisplay:10.37 W/m2 OVC
03:35 51.3 °F /  10.7 °C 44.0 °F /  6.7 °C 29.99in /  1015.5hPa Calm     76% 0.00in /  0mm WeatherDisplay:10.37 W/m2 OVC
03:40 51.3 °F /  10.7 °C 44.3 °F /  6.8 °C 29.99in /  1015.5hPa Calm     77% 0.00in /  0mm WeatherDisplay:10.37 W/m2 OVC
03:45 51.2 °F /  10.7 °C 44.2 °F /  6.8 °C 29.99in /  1015.5hPa Calm     77% 0.00in /  0mm WeatherDisplay:10.37 W/m2 OVC
03:50 51.2 °F /  10.7 °C 44.2 °F /  6.8 °C 29.99in /  1015.5hPa East 2.3mph /  3.7km/h 2.3mph /  3.7km/h 77% 0.00in /  0mm WeatherDisplay:10.37 W/m2 OVC
03:55 51.2 °F /  10.7 °C 44.5 °F /  6.9 °C 29.99in /  1015.5hPa Calm     78% 0.00in /  0mm WeatherDisplay:10.37 W/m2 OVC
04:00 51.2 °F /  10.7 °C 44.2 °F /  6.8 °C 29.99in /  1015.5hPa Calm     77% 0.00in /  0mm WeatherDisplay:10.37 W/m2 OVC
04:05 51.2 °F /  10.7 °C 44.2 °F /  6.8 °C 29.98in /  1015.1hPa Calm     77% 0.00in /  0mm WeatherDisplay:10.37 W/m2 OVC
04:10 51.2 °F /  10.7 °C 44.2 °F /  6.8 °C 29.98in /  1015.1hPa Calm     77% 0.00in /  0mm WeatherDisplay:10.37 W/m2 OVC
04:15 51.2 °F /  10.7 °C 43.9 °F /  6.6 °C 29.98in /  1015.1hPa East 1.2mph /  1.9km/h 1.2mph /  1.9km/h 76% 0.00in /  0mm WeatherDisplay:10.37 W/m2 OVC
04:20 51.4 °F /  10.8 °C 44.0 °F /  6.7 °C 29.98in /  1015.1hPa East 1.0mph /  1.6km/h 2.0mph /  3.2km/h 76% 0.00in /  0mm WeatherDisplay:10.37 W/m2 OVC
04:25 51.7 °F /  10.9 °C 44.0 °F /  6.7 °C 29.98in /  1015.1hPa NE 4.6mph /  7.4km/h 4.6mph /  7.4km/h 75% 0.00in /  0mm WeatherDisplay:10.37 W/m2 OVC
04:30 52.1 °F /  11.2 °C 43.7 °F /  6.5 °C 29.98in /  1015.1hPa NE 3.5mph /  5.6km/h 3.5mph /  5.6km/h 73% 0.00in /  0mm WeatherDisplay:10.37 W/m2 OVC
04:35 52.5 °F /  11.4 °C 43.7 °F /  6.5 °C 29.98in /  1015.1hPa NNE 5.0mph /  8km/h 5.0mph /  8km/h 72% 0.00in /  0mm WeatherDisplay:10.37 W/m2 OVC
04:40 52.8 °F /  11.6 °C 44.0 °F /  6.7 °C 29.98in /  1015.1hPa NE 8.1mph /  13km/h 8.1mph /  13km/h 72% 0.00in /  0mm WeatherDisplay:10.37 W/m2 OVC
04:45 52.8 °F /  11.6 °C 43.6 °F /  6.4 °C 29.98in /  1015.1hPa NNE 3.5mph /  5.6km/h 3.5mph /  5.6km/h 71% 0.00in /  0mm WeatherDisplay:10.37 W/m2 OVC
04:50 52.8 °F /  11.6 °C 43.6 °F /  6.4 °C 29.98in /  1015.1hPa NNE 9.2mph /  14.8km/h 9.2mph /  14.8km/h 71% 0.00in /  0mm WeatherDisplay:10.37 W/m2 OVC
04:55 52.9 °F /  11.6 °C 43.7 °F /  6.5 °C 29.98in /  1015.1hPa NNE 3.5mph /  5.6km/h 3.5mph /  5.6km/h 71% 0.00in /  0mm WeatherDisplay:10.37 W/m2 OVC
05:00 52.9 °F /  11.6 °C 43.7 °F /  6.5 °C 29.98in /  1015.1hPa NNE 5.8mph /  9.3km/h 5.8mph /  9.3km/h 71% 0.00in /  0mm WeatherDisplay:10.37 W/m2 OVC
05:05 52.9 °F /  11.6 °C 43.7 °F /  6.5 °C 29.98in /  1015.1hPa NE 6.0mph /  9.7km/h 6.0mph /  9.7km/h 71% 0.00in /  0mm WeatherDisplay:10.37 W/m2 OVC
05:10 52.9 °F /  11.6 °C 43.3 °F /  6.3 °C 29.98in /  1015.1hPa NE 6.0mph /  9.7km/h 6.0mph /  9.7km/h 70% 0.00in /  0mm WeatherDisplay:10.37 W/m2 OVC
05:15 53.0 °F /  11.7 °C 43.4 °F /  6.3 °C 29.98in /  1015.1hPa NNE 4.6mph /  7.4km/h 4.6mph /  7.4km/h 70% 0.00in /  0mm WeatherDisplay:10.37 W/m2 OVC
05:20 53.0 °F /  11.7 °C 43.8 °F /  6.6 °C 29.99in /  1015.5hPa NNE 3.5mph /  5.6km/h 3.5mph /  5.6km/h 71% 0.00in /  0mm WeatherDisplay:10.37 W/m2 OVC
05:25 52.9 °F /  11.6 °C 43.7 °F /  6.5 °C 29.99in /  1015.5hPa NNE 5.8mph /  9.3km/h 5.8mph /  9.3km/h 71% 0.00in /  0mm WeatherDisplay:10.37 W/m2 OVC
05:30 52.9 °F /  11.6 °C 43.7 °F /  6.5 °C 29.99in /  1015.5hPa NNE 4.6mph /  7.4km/h 4.6mph /  7.4km/h 71% 0.00in /  0mm WeatherDisplay:10.37 W/m2 OVC
05:35 52.8 °F /  11.6 °C 43.6 °F /  6.4 °C 29.99in /  1015.5hPa NNE 8.1mph /  13km/h 8.1mph /  13km/h 71% 0.00in /  0mm WeatherDisplay:10.37 W/m2 OVC
05:40 52.7 °F /  11.5 °C 43.9 °F /  6.6 °C 30.00in /  1015.8hPa NNE 2.3mph /  3.7km/h 2.3mph /  3.7km/h 72% 0.00in /  0mm WeatherDisplay:10.37 W/m2 OVC
05:45 52.5 °F /  11.4 °C 44.1 °F /  6.7 °C 30.00in /  1015.8hPa NNE 3.5mph /  5.6km/h 3.5mph /  5.6km/h 73% 0.00in /  0mm WeatherDisplay:10.37 W/m2 OVC
05:50 52.4 °F /  11.3 °C 44.7 °F /  7.1 °C 30.00in /  1015.8hPa Calm   0.2mph /  0.3km/h 75% 0.00in /  0mm WeatherDisplay:10.37 W/m2 OVC
05:55 52.1 °F /  11.2 °C 44.7 °F /  7.1 °C 30.00in /  1015.8hPa NNE 1.2mph /  1.9km/h 1.2mph /  1.9km/h 76% 0.00in /  0mm WeatherDisplay:10.37 W/m2 OVC
06:00 51.8 °F /  11 °C 44.8 °F /  7.1 °C 30.00in /  1015.8hPa NNE 2.3mph /  3.7km/h 2.3mph /  3.7km/h 77% 0.00in /  0mm WeatherDisplay:10.37 W/m2 OVC
06:05 51.4 °F /  10.8 °C 44.7 °F /  7.1 °C 30.00in /  1015.8hPa East 3.5mph /  5.6km/h 3.5mph /  5.6km/h 78% 0.01in /  0.25mm WeatherDisplay:10.37 W/m2 -DZ
06:10 51.1 °F /  10.6 °C 44.8 °F /  7.1 °C 30.00in /  1015.8hPa NNE 3.5mph /  5.6km/h 3.5mph /  5.6km/h 79% 0.01in /  0.25mm WeatherDisplay:10.37 W/m2 -DZ
06:15 50.8 °F /  10.4 °C 44.8 °F /  7.1 °C 30.00in /  1015.8hPa NNE 3.5mph /  5.6km/h 3.5mph /  5.6km/h 80% 0.01in /  0.25mm WeatherDisplay:10.37 W/m2 -DZ
06:20 50.6 °F /  10.3 °C 44.9 °F /  7.2 °C 30.01in /  1016.1hPa NE 3.5mph /  5.6km/h 3.5mph /  5.6km/h 81% 0.01in /  0.25mm WeatherDisplay:10.37 W/m2 -DZ
06:25 50.3 °F /  10.2 °C 44.7 °F /  7.1 °C 30.01in /  1016.1hPa NE 2.3mph /  3.7km/h 2.3mph /  3.7km/h 81% 0.01in /  0.25mm WeatherDisplay:10.37 W/m2 -RA
06:30 50.1 °F /  10.1 °C 44.8 °F /  7.1 °C 30.01in /  1016.1hPa NE 3.5mph /  5.6km/h 3.5mph /  5.6km/h 82% 0.01in /  0.25mm WeatherDisplay:10.37 W/m2 -RA
06:35 49.9 °F /  9.9 °C 44.9 °F /  7.2 °C 30.01in /  1016.1hPa NE 3.5mph /  5.6km/h 3.5mph /  5.6km/h 83% 0.02in /  0.51mm WeatherDisplay:10.37 W/m2 -RA
06:40 49.6 °F /  9.8 °C 44.9 °F /  7.2 °C 30.01in /  1016.1hPa NE 3.5mph /  5.6km/h 3.5mph /  5.6km/h 84% 0.03in /  0.76mm WeatherDisplay:10.37 W/m2 -RA
06:45 49.3 °F /  9.6 °C 45.2 °F /  7.3 °C 30.01in /  1016.1hPa NE 3.5mph /  5.6km/h 3.5mph /  5.6km/h 86% 0.03in /  0.76mm WeatherDisplay:10.37 W/m2 -RA
06:50 49.1 °F /  9.5 °C 45.1 °F /  7.3 °C 30.01in /  1016.1hPa NNE 2.3mph /  3.7km/h 2.3mph /  3.7km/h 86% 0.04in /  1.02mm WeatherDisplay:10.37 W/m2 -RA
06:55 48.9 °F /  9.4 °C 45.5 °F /  7.5 °C 30.01in /  1016.1hPa NNE 3.5mph /  5.6km/h 3.5mph /  5.6km/h 88% 0.04in /  1.02mm WeatherDisplay:10.37 W/m2 -RA
07:00 48.7 °F /  9.3 °C 45.3 °F /  7.4 °C 30.01in /  1016.1hPa ENE 3.5mph /  5.6km/h 3.5mph /  5.6km/h 88% 0.05in /  1.27mm WeatherDisplay:10.37 W/m2 -RA
07:05 48.5 °F /  9.2 °C 45.4 °F /  7.4 °C 30.01in /  1016.1hPa East 3.5mph /  5.6km/h 3.5mph /  5.6km/h 89% 0.04in /  1.02mm WeatherDisplay:10.37 W/m2 RA
07:10 48.4 °F /  9.1 °C 45.6 °F /  7.6 °C 30.01in /  1016.1hPa ESE 2.3mph /  3.7km/h 2.3mph /  3.7km/h 90% 0.04in /  1.02mm WeatherDisplay:10.37 W/m2 OVC
07:15 48.3 °F /  9.1 °C 45.5 °F /  7.5 °C 30.01in /  1016.1hPa ESE 2.3mph /  3.7km/h 2.3mph /  3.7km/h 90% 0.05in /  1.27mm WeatherDisplay:10.37 W/m2 RA
07:20 48.2 °F /  9 °C 45.4 °F /  7.4 °C 30.02in /  1016.5hPa ESE 2.3mph /  3.7km/h 2.3mph /  3.7km/h 90% 0.05in /  1.27mm WeatherDisplay:10.37 W/m2 RA
07:25 48.2 °F /  9 °C 45.7 °F /  7.6 °C 30.02in /  1016.5hPa ESE 2.3mph /  3.7km/h 2.3mph /  3.7km/h 91% 0.05in /  1.27mm WeatherDisplay:10.37 W/m2 OVC
07:30 48.1 °F /  8.9 °C 45.6 °F /  7.6 °C 30.02in /  1016.5hPa ESE 1.2mph /  1.9km/h 1.2mph /  1.9km/h 91% 0.06in /  1.52mm WeatherDisplay:10.37 W/m2 RA
07:35 48.1 °F /  8.9 °C 45.6 °F /  7.6 °C 30.02in /  1016.5hPa ESE 1.2mph /  1.9km/h 1.2mph /  1.9km/h 91% 0.06in /  1.52mm WeatherDisplay:10.37 W/m2 RA
07:40 48.1 °F /  8.9 °C 45.6 °F /  7.6 °C 30.02in /  1016.5hPa ESE 1.2mph /  1.9km/h   91% 0.05in /  1.27mm WeatherDisplay:10.37 W/m2 RA
07:45 48.0 °F /  8.9 °C 45.7 °F /  7.6 °C 30.02in /  1016.5hPa ESE 2.3mph /  3.7km/h 2.3mph /  3.7km/h 92% 0.05in /  1.27mm WeatherDisplay:10.37 W/m2 OVC
07:50 48.0 °F /  8.9 °C 45.7 °F /  7.6 °C 30.02in /  1016.5hPa ESE 1.2mph /  1.9km/h 1.2mph /  1.9km/h 92% 0.04in /  1.02mm WeatherDisplay:10.37 W/m2 OVC
Smyth Weather
Compliments of Weather Underground - 2 mb